createdAt,value
2019-04-04T00:01:59.211Z,19.80
2019-04-04T00:04:26.542Z,19.80
2019-04-04T00:06:53.594Z,19.80
2019-04-04T00:09:21.896Z,19.80
2019-04-04T00:11:48.723Z,19.60
2019-04-04T00:14:15.594Z,19.80
2019-04-04T00:16:42.423Z,19.90
2019-04-04T00:19:09.254Z,19.60
2019-04-04T00:21:36.095Z,19.80
2019-04-04T00:24:02.929Z,20.00
2019-04-04T00:26:29.775Z,20.10
2019-04-04T00:28:56.632Z,20.10
2019-04-04T00:31:23.451Z,20.00
2019-04-04T00:33:50.186Z,20.00
2019-04-04T00:36:17.036Z,20.30
2019-04-04T00:38:43.889Z,20.00
2019-04-04T00:41:11.045Z,20.00
2019-04-04T00:43:39.195Z,20.20
2019-04-04T00:46:06.244Z,20.30
2019-04-04T00:48:34.181Z,20.20
2019-04-04T00:51:01.565Z,20.30
2019-04-04T00:53:28.409Z,20.30
2019-04-04T00:55:55.250Z,20.40
2019-04-04T00:58:22.092Z,20.40
2019-04-04T01:00:48.997Z,20.40
2019-04-04T01:03:15.775Z,20.10
2019-04-04T01:05:42.622Z,20.10
2019-04-04T01:08:09.615Z,20.20
2019-04-04T01:10:36.344Z,20.00
2019-04-04T01:13:03.146Z,20.10
2019-04-04T01:15:31.206Z,20.00
2019-04-04T01:17:58.466Z,20.00
2019-04-04T01:20:25.200Z,20.00
2019-04-04T01:22:52.248Z,20.30
2019-04-04T01:25:19.095Z,20.00
2019-04-04T01:27:45.929Z,20.00
2019-04-04T01:30:12.797Z,20.00
2019-04-04T01:32:39.799Z,19.90
2019-04-04T01:35:06.558Z,20.00
2019-04-04T01:37:33.402Z,20.00
2019-04-04T01:40:02.258Z,20.00
2019-04-04T01:42:28.727Z,20.20
2019-04-04T01:44:55.531Z,20.10
2019-04-04T01:47:22.303Z,20.10
2019-04-04T01:49:49.962Z,20.10
2019-04-04T01:52:17.611Z,20.20
2019-04-04T01:54:44.369Z,20.10
2019-04-04T01:57:11.212Z,20.30
2019-04-04T01:59:38.051Z,20.40
2019-04-04T02:02:04.996Z,20.30
2019-04-04T02:04:31.739Z,20.40
2019-04-04T02:06:59.135Z,20.40
2019-04-04T02:09:26.412Z,20.40
2019-04-04T02:11:53.187Z,20.40
2019-04-04T02:14:20.035Z,20.30
2019-04-04T02:16:50.919Z,20.60
2019-04-04T02:19:15.446Z,20.60
2019-04-04T02:21:42.286Z,20.60
2019-04-04T02:24:09.127Z,20.40
2019-04-04T02:26:36.611Z,20.50
2019-04-04T02:29:03.730Z,20.50
2019-04-04T02:31:30.472Z,20.50
2019-04-04T02:33:57.249Z,20.70
2019-04-04T02:36:24.259Z,20.80
2019-04-04T02:38:51.103Z,20.80
2019-04-04T02:41:17.962Z,20.90
2019-04-04T02:43:45.100Z,20.90
2019-04-04T02:46:12.415Z,20.80
2019-04-04T02:48:39.285Z,21.00
2019-04-04T02:51:08.019Z,21.10
2019-04-04T02:53:34.609Z,21.10
2019-04-04T02:56:03.360Z,21.00
2019-04-04T02:58:29.930Z,21.20
2019-04-04T03:00:59.644Z,21.00
2019-04-04T03:03:25.151Z,21.70
2019-04-04T03:05:52.396Z,21.10
2019-04-04T03:08:19.166Z,21.30
2019-04-04T03:10:49.257Z,21.10
2019-04-04T03:13:14.326Z,21.10
2019-04-04T03:15:42.005Z,20.90
2019-04-04T03:18:09.416Z,21.20
2019-04-04T03:20:36.193Z,21.60
2019-04-04T03:23:02.923Z,21.20
2019-04-04T03:25:29.649Z,21.10
2019-04-04T03:27:58.305Z,21.20
2019-04-04T03:30:24.807Z,21.10
2019-04-04T03:32:54.390Z,21.00
2019-04-04T03:35:25.762Z,21.00
2019-04-04T03:37:48.327Z,20.90
2019-04-04T03:40:15.066Z,20.60
2019-04-04T03:42:44.281Z,20.70
2019-04-04T03:45:10.200Z,20.70
2019-04-04T03:47:36.975Z,20.80
2019-04-04T03:50:03.717Z,20.90
2019-04-04T03:52:30.435Z,20.80
2019-04-04T03:54:57.232Z,20.90
2019-04-04T03:57:24.060Z,21.40
2019-04-04T03:59:50.817Z,20.90
2019-04-04T04:02:18.633Z,20.90
2019-04-04T04:04:45.613Z,20.90
2019-04-04T04:07:15.036Z,20.90
2019-04-04T04:09:40.953Z,21.00
2019-04-04T04:12:11.128Z,21.00
2019-04-04T04:14:36.261Z,21.00
2019-04-04T04:17:02.981Z,20.90
2019-04-04T04:19:31.392Z,21.00
2019-04-04T04:21:58.226Z,21.00
2019-04-04T04:24:26.795Z,20.90
2019-04-04T04:26:53.388Z,21.00
2019-04-04T04:29:20.122Z,20.80
2019-04-04T04:31:49.196Z,20.80
2019-04-04T04:34:15.261Z,20.80
2019-04-04T04:36:41.985Z,20.90
2019-04-04T04:39:08.720Z,21.10
2019-04-04T04:41:35.689Z,20.80
2019-04-04T04:44:02.834Z,21.00
2019-04-04T04:46:30.803Z,20.90
2019-04-04T04:48:57.580Z,20.70
2019-04-04T04:51:24.312Z,20.80
2019-04-04T04:53:51.313Z,20.70
2019-04-04T04:56:18.346Z,20.90
2019-04-04T04:58:44.986Z,20.50
2019-04-04T05:01:11.732Z,20.40
2019-04-04T05:03:38.534Z,20.40
2019-04-04T05:06:05.264Z,20.30
2019-04-04T05:08:31.990Z,20.10
2019-04-04T05:10:58.787Z,20.00
2019-04-04T05:13:28.709Z,20.00
2019-04-04T05:15:53.890Z,19.90
2019-04-04T05:18:20.666Z,20.10
2019-04-04T05:20:47.388Z,19.80
2019-04-04T05:23:15.601Z,19.60
2019-04-04T05:25:52.116Z,19.70
2019-04-04T05:28:11.478Z,19.70
2019-04-04T05:30:38.255Z,19.40
2019-04-04T05:33:05.028Z,19.10
2019-04-04T05:35:33.393Z,19.00
2019-04-04T05:38:00.134Z,18.70
2019-04-04T05:40:26.949Z,18.90
2019-04-04T05:42:53.684Z,19.00
2019-04-04T05:45:20.424Z,18.80
2019-04-04T05:47:47.212Z,18.80
2019-04-04T05:50:16.313Z,18.70
2019-04-04T05:52:42.318Z,18.10
2019-04-04T05:55:10.847Z,17.90
2019-04-04T05:57:37.662Z,18.00
2019-04-04T06:00:04.395Z,17.70
2019-04-04T06:02:31.240Z,17.40
2019-04-04T06:04:57.977Z,17.60
2019-04-04T06:07:24.702Z,17.60
2019-04-04T06:09:51.498Z,17.30
2019-04-04T06:12:18.233Z,17.30
2019-04-04T06:14:46.105Z,16.90
2019-04-04T06:17:12.972Z,16.70
2019-04-04T06:19:39.691Z,16.40
2019-04-04T06:22:06.418Z,16.00
2019-04-04T06:24:33.203Z,15.50
2019-04-04T06:26:59.972Z,15.70
2019-04-04T06:29:26.689Z,15.20
2019-04-04T06:31:53.480Z,15.40
2019-04-04T06:34:20.218Z,15.60
2019-04-04T06:36:47.002Z,15.40
2019-04-04T06:39:15.381Z,15.30
2019-04-04T06:41:42.104Z,14.80
2019-04-04T06:44:08.860Z,14.70
2019-04-04T06:46:35.613Z,14.70
2019-04-04T06:49:04.239Z,14.10
2019-04-04T06:51:30.731Z,14.00
2019-04-04T06:53:59.536Z,13.60
2019-04-04T06:56:25.882Z,13.40
2019-04-04T06:58:52.613Z,13.20
2019-04-04T07:01:21.980Z,12.70
2019-04-04T07:03:48.396Z,12.50
2019-04-04T07:06:15.474Z,13.10
2019-04-04T07:08:42.274Z,12.90
2019-04-04T07:11:21.046Z,12.20
2019-04-04T07:13:42.676Z,12.50
2019-04-04T07:16:07.972Z,12.10
2019-04-04T07:18:34.402Z,12.30
2019-04-04T07:21:03.482Z,12.20
2019-04-04T07:23:29.614Z,12.50
2019-04-04T07:25:56.337Z,12.30
2019-04-04T07:28:23.070Z,12.50
2019-04-04T07:30:50.016Z,12.60
2019-04-04T07:33:16.806Z,12.40
2019-04-04T07:35:43.498Z,12.50
2019-04-04T07:38:10.292Z,11.90
2019-04-04T07:40:37.377Z,12.00
2019-04-04T07:43:04.144Z,12.20
2019-04-04T07:45:30.929Z,12.60
2019-04-04T07:47:57.655Z,12.40
2019-04-04T07:50:26.282Z,12.50
2019-04-04T07:52:52.810Z,12.40
2019-04-04T07:55:19.554Z,12.60
2019-04-04T07:57:46.334Z,12.20
2019-04-04T08:00:13.096Z,11.30
2019-04-04T08:02:39.827Z,11.40
2019-04-04T08:05:06.568Z,11.50
2019-04-04T08:07:33.354Z,12.10
2019-04-04T08:10:00.084Z,11.90
2019-04-04T08:12:26.829Z,12.50
2019-04-04T08:14:53.627Z,12.60
2019-04-04T08:17:20.344Z,12.40
2019-04-04T08:19:58.923Z,12.60
2019-04-04T08:22:15.671Z,12.90
2019-04-04T08:24:42.464Z,12.30
2019-04-04T08:27:09.198Z,12.70
2019-04-04T08:29:35.977Z,12.80
2019-04-04T08:32:02.705Z,13.20
2019-04-04T08:34:29.434Z,13.40
2019-04-04T08:36:56.222Z,13.60
2019-04-04T08:39:22.962Z,13.00
2019-04-04T08:41:52.266Z,13.00
2019-04-04T08:44:18.291Z,13.00
2019-04-04T08:46:44.970Z,13.10
2019-04-04T08:49:11.711Z,13.00
2019-04-04T08:51:38.517Z,14.20
2019-04-04T08:54:05.245Z,12.90
2019-04-04T08:56:31.979Z,13.40
2019-04-04T08:58:58.788Z,13.90
2019-04-04T09:01:25.642Z,13.30
2019-04-04T09:03:52.332Z,12.50
2019-04-04T09:06:19.685Z,12.00
2019-04-04T09:08:46.444Z,11.90
2019-04-04T09:11:13.747Z,13.10
2019-04-04T09:13:40.547Z,13.20
2019-04-04T09:16:07.279Z,13.30
2019-04-04T09:18:34.014Z,13.40
2019-04-04T09:21:00.810Z,13.00
2019-04-04T09:23:27.554Z,12.90
2019-04-04T09:26:05.050Z,12.10
2019-04-04T09:28:22.776Z,11.40
2019-04-04T09:30:49.504Z,11.20
2019-04-04T09:33:16.216Z,10.40
2019-04-04T09:35:43.088Z,9.90
2019-04-04T09:38:09.837Z,10.10
2019-04-04T09:40:36.623Z,10.50
2019-04-04T09:43:03.409Z,10.60
2019-04-04T09:45:30.450Z,10.30
2019-04-04T09:47:57.195Z,9.20
2019-04-04T09:50:24.043Z,9.70
2019-04-04T09:52:50.791Z,9.80
2019-04-04T09:55:17.506Z,9.30
2019-04-04T09:57:44.292Z,8.00
2019-04-04T10:00:11.030Z,8.30
2019-04-04T10:02:37.748Z,8.50
2019-04-04T10:05:06.040Z,7.70
2019-04-04T10:07:32.967Z,7.80
2019-04-04T10:09:59.703Z,7.60
2019-04-04T10:12:29.381Z,7.70
2019-04-04T10:14:54.869Z,7.40
2019-04-04T10:17:21.715Z,7.30
2019-04-04T10:19:48.502Z,7.30
2019-04-04T10:22:15.226Z,6.80
2019-04-04T10:24:41.966Z,7.00
2019-04-04T10:27:08.776Z,6.70
2019-04-04T10:29:35.519Z,6.50
2019-04-04T10:32:02.245Z,6.50
2019-04-04T10:34:29.043Z,6.80
2019-04-04T10:36:55.749Z,7.10
2019-04-04T10:39:28.657Z,7.00
2019-04-04T10:41:51.085Z,7.20
2019-04-04T10:44:17.812Z,6.80
2019-04-04T10:46:44.534Z,5.80
2019-04-04T10:49:11.305Z,5.90
2019-04-04T10:51:38.054Z,6.00
2019-04-04T10:54:04.766Z,6.00
2019-04-04T10:56:31.556Z,6.50
2019-04-04T10:58:58.274Z,6.10
2019-04-04T11:01:25.032Z,6.00
2019-04-04T11:03:51.800Z,5.90
2019-04-04T11:06:18.522Z,6.30
2019-04-04T11:08:45.257Z,6.50
2019-04-04T11:11:12.047Z,6.70
2019-04-04T11:13:38.786Z,6.70
2019-04-04T11:16:05.494Z,7.20
2019-04-04T11:18:32.275Z,6.40
2019-04-04T11:20:59.008Z,7.00
2019-04-04T11:23:25.715Z,5.90
2019-04-04T11:25:52.529Z,6.10
2019-04-04T11:28:19.245Z,6.30
2019-04-04T11:30:46.015Z,6.00
2019-04-04T11:33:12.817Z,6.20
2019-04-04T11:35:39.599Z,6.50
2019-04-04T11:38:06.541Z,6.90
2019-04-04T11:40:33.330Z,6.60
2019-04-04T11:43:00.054Z,6.80
2019-04-04T11:45:26.773Z,6.70
2019-04-04T11:47:53.574Z,6.80
2019-04-04T11:50:20.300Z,7.40
2019-04-04T11:52:47.030Z,7.80
2019-04-04T11:55:13.843Z,8.10
2019-04-04T11:57:40.577Z,8.10
2019-04-04T12:00:07.302Z,8.40
2019-04-04T12:02:34.082Z,8.80
2019-04-04T12:05:00.811Z,9.10
2019-04-04T12:07:27.533Z,9.00
2019-04-04T12:10:06.461Z,9.50
2019-04-04T12:12:22.703Z,9.50
2019-04-04T12:14:49.429Z,9.60
2019-04-04T12:17:16.246Z,9.80
2019-04-04T12:19:42.979Z,10.10
2019-04-04T12:22:11.781Z,9.90
2019-04-04T12:24:38.125Z,10.00
2019-04-04T12:27:04.855Z,10.20
2019-04-04T12:29:31.578Z,10.90
2019-04-04T12:31:58.369Z,10.40
2019-04-04T12:34:25.102Z,10.10
2019-04-04T12:36:51.835Z,10.10
2019-04-04T12:39:18.618Z,10.10
2019-04-04T12:41:45.601Z,9.90
2019-04-04T12:44:12.319Z,9.60
2019-04-04T12:46:39.102Z,9.50
2019-04-04T12:49:05.832Z,9.20
2019-04-04T12:51:32.554Z,9.00
2019-04-04T12:53:59.343Z,8.50
2019-04-04T12:56:26.055Z,8.70
2019-04-04T12:58:52.796Z,8.40
2019-04-04T13:01:21.288Z,8.90
2019-04-04T13:03:47.966Z,8.60
2019-04-04T13:06:14.689Z,8.90
2019-04-04T13:08:41.464Z,9.30
2019-04-04T13:11:08.191Z,9.30
2019-04-04T13:13:34.907Z,9.70
2019-04-04T13:16:01.715Z,10.00
2019-04-04T13:18:28.444Z,10.00
2019-04-04T13:20:55.288Z,10.30
2019-04-04T13:23:22.024Z,10.70
2019-04-04T13:25:48.789Z,11.60
2019-04-04T13:28:15.470Z,10.90
2019-04-04T13:30:42.254Z,10.80
2019-04-04T13:33:08.982Z,10.80
2019-04-04T13:35:37.562Z,10.30
2019-04-04T13:38:04.142Z,10.20
2019-04-04T13:40:30.871Z,10.30
2019-04-04T13:42:57.606Z,10.10
2019-04-04T13:45:25.258Z,10.00
2019-04-04T13:47:52.707Z,10.20
2019-04-04T13:50:20.467Z,10.30
2019-04-04T13:52:47.466Z,10.30
2019-04-04T13:55:14.157Z,10.10
2019-04-04T13:57:40.895Z,10.60
2019-04-04T14:00:07.688Z,10.20
2019-04-04T14:02:34.408Z,10.20
2019-04-04T14:05:09.779Z,10.20
2019-04-04T14:07:29.574Z,10.40
2019-04-04T14:09:56.309Z,10.40
2019-04-04T14:12:23.041Z,10.60
2019-04-04T14:14:49.853Z,10.70
2019-04-04T14:17:16.682Z,11.00
2019-04-04T14:19:43.422Z,10.90
2019-04-04T14:22:10.259Z,10.90
2019-04-04T14:24:37.134Z,11.00
2019-04-04T14:27:03.941Z,11.00
2019-04-04T14:29:30.797Z,11.40
2019-04-04T14:31:57.629Z,11.80
2019-04-04T14:34:24.488Z,11.10
2019-04-04T14:36:51.310Z,11.10
2019-04-04T14:39:18.154Z,11.30
2019-04-04T14:41:44.995Z,11.50
2019-04-04T14:44:11.845Z,10.90
2019-04-04T14:46:39.327Z,10.90
2019-04-04T14:49:06.612Z,11.00
2019-04-04T14:51:33.489Z,11.30
2019-04-04T14:54:00.333Z,11.60
2019-04-04T14:56:28.973Z,11.40
2019-04-04T14:58:55.556Z,11.50
2019-04-04T15:01:22.440Z,11.80
2019-04-04T15:03:49.151Z,11.90
2019-04-04T15:06:15.972Z,11.80
2019-04-04T15:08:43.203Z,12.00
2019-04-04T15:11:09.922Z,12.30
2019-04-04T15:13:36.706Z,12.40
2019-04-04T15:16:03.439Z,12.30
2019-04-04T15:18:30.170Z,12.30
2019-04-04T15:20:57.069Z,12.40
2019-04-04T15:23:23.782Z,12.40
2019-04-04T15:25:50.510Z,12.50
2019-04-04T15:28:17.312Z,12.80
2019-04-04T15:30:44.034Z,12.80
2019-04-04T15:33:10.757Z,12.90
2019-04-04T15:35:37.668Z,13.10
2019-04-04T15:38:04.408Z,13.10
2019-04-04T15:40:31.146Z,13.20
2019-04-04T15:42:57.930Z,13.40
2019-04-04T15:45:24.669Z,13.50
2019-04-04T15:47:51.376Z,13.50
2019-04-04T15:50:18.372Z,13.50
2019-04-04T15:52:45.105Z,13.50
2019-04-04T15:55:11.838Z,13.60
2019-04-04T15:57:38.625Z,13.80
2019-04-04T16:00:05.349Z,13.90
2019-04-04T16:02:32.072Z,13.90
2019-04-04T16:04:58.948Z,13.80
2019-04-04T16:07:25.799Z,13.80
2019-04-04T16:09:52.631Z,13.80
2019-04-04T16:12:19.478Z,14.10
2019-04-04T16:14:46.409Z,14.30
2019-04-04T16:17:13.156Z,14.50
2019-04-04T16:19:40.097Z,14.50
2019-04-04T16:22:06.824Z,14.80
2019-04-04T16:24:33.551Z,14.60
2019-04-04T16:27:00.335Z,14.50
2019-04-04T16:29:27.052Z,14.60
2019-04-04T16:31:53.918Z,14.40
2019-04-04T16:34:20.718Z,14.70
2019-04-04T16:36:47.439Z,14.40
2019-04-04T16:39:14.166Z,14.50
2019-04-04T16:41:40.951Z,14.40
2019-04-04T16:44:07.688Z,14.60
2019-04-04T16:46:34.422Z,14.50
2019-04-04T16:49:01.234Z,14.80
2019-04-04T16:51:27.963Z,14.60
2019-04-04T16:53:54.698Z,15.30
2019-04-04T16:56:22.729Z,14.80
2019-04-04T16:58:49.457Z,14.80
2019-04-04T17:01:16.174Z,15.00
2019-04-04T17:03:42.989Z,15.30
2019-04-04T17:06:09.752Z,15.50
2019-04-04T17:08:36.444Z,15.50
2019-04-04T17:11:03.296Z,15.80
2019-04-04T17:13:30.076Z,15.80
2019-04-04T17:15:57.179Z,15.70
2019-04-04T17:18:24.440Z,15.80
2019-04-04T17:20:51.448Z,15.80
2019-04-04T17:23:18.239Z,15.90
2019-04-04T17:25:45.095Z,15.80
2019-04-04T17:28:12.233Z,15.80
2019-04-04T17:30:39.361Z,15.90
2019-04-04T17:33:06.131Z,16.10
2019-04-04T17:35:32.865Z,16.00
2019-04-04T17:37:59.611Z,16.30
2019-04-04T17:40:26.419Z,16.40
2019-04-04T17:42:53.300Z,16.40
2019-04-04T17:45:20.119Z,16.60
2019-04-04T17:47:46.917Z,16.70
2019-04-04T17:50:13.749Z,16.70
2019-04-04T17:52:40.592Z,16.80
2019-04-04T17:55:07.445Z,16.70
2019-04-04T17:57:34.416Z,16.80
2019-04-04T18:00:01.231Z,16.60
2019-04-04T18:02:28.021Z,16.60
2019-04-04T18:04:54.759Z,16.70
2019-04-04T18:07:21.489Z,16.60
2019-04-04T18:09:48.308Z,16.70
2019-04-04T18:12:16.935Z,16.90
2019-04-04T18:14:43.382Z,16.70
2019-04-04T18:17:10.191Z,17.10
2019-04-04T18:19:36.917Z,17.00
2019-04-04T18:22:03.644Z,17.10
2019-04-04T18:24:30.462Z,17.10
2019-04-04T18:26:57.184Z,17.10
2019-04-04T18:29:23.931Z,17.10
2019-04-04T18:31:50.710Z,17.10
2019-04-04T18:34:17.858Z,17.10
2019-04-04T18:36:45.029Z,17.00
2019-04-04T18:39:12.486Z,16.90
2019-04-04T18:41:39.270Z,17.00
2019-04-04T18:44:06.112Z,17.10
2019-04-04T18:46:32.992Z,17.20
2019-04-04T18:48:59.797Z,17.30
2019-04-04T18:51:26.736Z,17.10
2019-04-04T18:53:53.520Z,17.20
2019-04-04T18:56:20.253Z,17.10
2019-04-04T18:58:46.973Z,17.20
2019-04-04T19:01:13.765Z,17.20
2019-04-04T19:03:40.490Z,17.10
2019-04-04T19:06:07.237Z,17.20
2019-04-04T19:08:34.025Z,17.10
2019-04-04T19:11:00.759Z,17.20
2019-04-04T19:13:27.534Z,17.20
2019-04-04T19:15:54.465Z,17.20
2019-04-04T19:18:21.184Z,17.10
2019-04-04T19:20:47.920Z,17.10
2019-04-04T19:23:14.743Z,17.20
2019-04-04T19:25:41.467Z,17.20
2019-04-04T19:28:08.203Z,17.30
2019-04-04T19:30:35.001Z,17.30
2019-04-04T19:33:01.786Z,17.30
2019-04-04T19:35:28.475Z,17.10
2019-04-04T19:38:00.310Z,17.20
2019-04-04T19:40:23.683Z,17.30
2019-04-04T19:42:50.430Z,17.30
2019-04-04T19:45:17.231Z,17.20
2019-04-04T19:47:44.005Z,17.40
2019-04-04T19:50:10.856Z,17.20
2019-04-04T19:52:38.292Z,17.30
2019-04-04T19:55:05.140Z,17.40
2019-04-04T19:57:32.007Z,17.30
2019-04-04T19:59:58.823Z,17.40
2019-04-04T20:02:25.684Z,17.30
2019-04-04T20:04:52.500Z,17.40
2019-04-04T20:07:19.352Z,17.30
2019-04-04T20:09:46.187Z,17.50
2019-04-04T20:12:13.130Z,17.50
2019-04-04T20:14:40.476Z,17.70
2019-04-04T20:17:07.466Z,17.60
2019-04-04T20:19:34.417Z,17.80
2019-04-04T20:22:01.325Z,17.90
2019-04-04T20:24:28.208Z,17.80
2019-04-04T20:26:55.116Z,18.00
2019-04-04T20:29:22.565Z,18.10
2019-04-04T20:31:50.111Z,18.00
2019-04-04T20:34:16.925Z,18.10
2019-04-04T20:36:43.880Z,18.00
2019-04-04T20:39:10.747Z,18.20
2019-04-04T20:41:37.585Z,18.10
2019-04-04T20:44:04.622Z,18.40
2019-04-04T20:46:31.462Z,18.40
2019-04-04T20:48:58.148Z,18.20
2019-04-04T20:51:24.956Z,18.30
2019-04-04T20:53:51.674Z,18.30
2019-04-04T20:56:18.413Z,18.20
2019-04-04T20:58:45.179Z,18.30
2019-04-04T21:01:11.912Z,18.50
2019-04-04T21:03:38.818Z,18.50
2019-04-04T21:06:05.742Z,18.50
2019-04-04T21:08:32.520Z,18.50
2019-04-04T21:10:59.421Z,18.40
2019-04-04T21:13:26.682Z,18.40
2019-04-04T21:15:53.425Z,18.50
2019-04-04T21:18:20.148Z,18.40
2019-04-04T21:20:46.934Z,18.30
2019-04-04T21:23:13.687Z,18.50
2019-04-04T21:25:40.425Z,18.50
2019-04-04T21:28:07.216Z,18.40
2019-04-04T21:30:33.958Z,18.50
2019-04-04T21:33:00.699Z,18.70
2019-04-04T21:35:27.485Z,18.40
2019-04-04T21:37:54.215Z,18.40
2019-04-04T21:40:20.944Z,18.50
2019-04-04T21:42:47.727Z,18.60
2019-04-04T21:45:15.492Z,18.60
2019-04-04T21:47:42.304Z,18.60
2019-04-04T21:50:09.083Z,18.70
2019-04-04T21:52:35.826Z,18.80
2019-04-04T21:55:02.772Z,18.80
2019-04-04T21:57:29.809Z,18.70
2019-04-04T21:59:56.466Z,18.90
2019-04-04T22:02:23.308Z,18.80
2019-04-04T22:04:50.380Z,19.00
2019-04-04T22:07:17.259Z,19.00
2019-04-04T22:09:43.990Z,19.10
2019-04-04T22:12:10.778Z,19.10
2019-04-04T22:14:37.501Z,19.10
2019-04-04T22:17:04.226Z,19.50
2019-04-04T22:19:31.018Z,19.10
2019-04-04T22:21:57.774Z,19.00
2019-04-04T22:24:24.506Z,19.20
2019-04-04T22:26:51.290Z,19.30
2019-04-04T22:29:18.006Z,19.30
2019-04-04T22:31:44.857Z,19.30
2019-04-04T22:34:11.683Z,19.50
2019-04-04T22:36:38.541Z,19.00
2019-04-04T22:39:05.368Z,19.40
2019-04-04T22:41:33.008Z,19.30
2019-04-04T22:44:03.583Z,19.40
2019-04-04T22:46:28.226Z,19.30
2019-04-04T22:48:55.063Z,19.30
2019-04-04T22:51:21.798Z,19.50
2019-04-04T22:53:48.517Z,19.60
2019-04-04T22:56:15.318Z,19.50
2019-04-04T22:58:42.048Z,19.60
2019-04-04T23:01:08.830Z,19.60
2019-04-04T23:03:35.581Z,19.50
2019-04-04T23:06:02.318Z,19.60
2019-04-04T23:08:29.046Z,19.80
2019-04-04T23:10:55.856Z,19.70
2019-04-04T23:13:22.571Z,19.50
2019-04-04T23:15:49.298Z,19.60
2019-04-04T23:18:16.080Z,19.70
2019-04-04T23:20:42.816Z,19.60
2019-04-04T23:23:09.550Z,19.70
2019-04-04T23:25:36.335Z,19.70
2019-04-04T23:28:03.230Z,19.70
2019-04-04T23:30:30.020Z,19.50
2019-04-04T23:32:56.819Z,19.70
2019-04-04T23:35:23.571Z,19.60
2019-04-04T23:37:50.305Z,19.70
2019-04-04T23:40:17.105Z,19.60
2019-04-04T23:42:43.843Z,19.60
2019-04-04T23:45:10.582Z,19.70
2019-04-04T23:47:42.994Z,19.60
2019-04-04T23:50:05.795Z,19.70
2019-04-04T23:52:32.520Z,19.80
2019-04-04T23:54:59.307Z,19.70
2019-04-04T23:57:26.042Z,19.80
2019-04-04T23:59:52.800Z,19.90
